Terminal Aerodrome Forecast
Issued by NWS Charleston, WV

Home | Current Version | Previous Version | Text Only | Print | Product List | Glossary On
Versions: 1 2 3 4 5 6 7 8 9 10 11 12 13 14 15 16 17 18 19 20 21 22 23 24 25
000
FTUS41 KRLX 250500
TAFBKW
TAF
KBKW 250520Z 2506/2606 00000KT P6SM BKN130
     FM251100 14006KT P6SM OVC060
     FM251400 14008G13KT 6SM SHRA OVC040
     FM251700 13010G16KT 3SM SHRA OVC020
     FM252000 14010G17KT P6SM BKN015
     FM260500 15006KT 4SM SHRA BR OVC008=

USA.gov is the U.S. government's official web portal to all federal, state and local government web resources and services.